Time;durP1;ratioP1;P1;durP2;ratioP2;P2;SDS_P1;SDS_P2;PMS_P1;PMS_P2;Temp;Humidity;BMP_temperature;BMP_pressure;BME280_temperature;BME280_humidity;BME280_pressure;Samples;Min_cycle;Max_cycle;Signal;HPM_P1;HPM_P2
2021/06/27 00:00:31;;;;;;;;;;;;;;;;;;5090828;28;20447;-70
2021/06/27 00:02:58;;;;;;;;;;;;;;;;;;5091977;28;20462;-71
2021/06/27 00:05:25;;;;;;;;;;;;;;;;;;5091704;28;19926;-71
2021/06/27 00:07:52;;;;;;;;;;;;;;;;;;5081074;28;19931;-71
2021/06/27 00:10:19;;;;;;;;;;;;;;;;;;5071024;28;20000;-71
2021/06/27 00:12:46;;;;;;;;;;;;;;;;;;5071186;28;19931;-71
2021/06/27 00:15:14;;;;;;;;;;;;;;;;;;5071411;28;19928;-70
2021/06/27 00:17:41;;;;;;;;;;;;;;;;;;5071305;28;20087;-70
2021/06/27 00:20:08;;;;;;;;;;;;;;;;;;5071316;28;19931;-69
2021/06/27 00:22:35;;;;;;;;;;;;;;;;;;5071348;28;20039;-70
2021/06/27 00:25:02;;;;;;;;;;;;;;;;;;5080775;28;19924;-71
2021/06/27 00:27:29;;;;;;;;;;;;;;;;;;5091768;28;19934;-71
2021/06/27 00:29:56;;;;;;;;;;;;;;;;;;5091500;28;19930;-71
2021/06/27 00:32:23;;;;;;;;;;;;;;;;;;5091667;28;19924;-71
2021/06/27 00:34:50;;;;;;;;;;;;;;;;;;5091426;28;19924;-70
2021/06/27 00:37:17;;;;;;;;;;;;;;;;;;5091539;28;20269;-71
2021/06/27 00:39:44;;;;;;;;;;;;;;;;;;5091399;28;19978;-70
2021/06/27 00:42:11;;;;;;;;;;;;;;;;;;5091449;28;19931;-69
2021/06/27 00:44:38;;;;;;;;;;;;;;;;;;5095076;28;20343;-70
2021/06/27 00:47:05;;;;;;;;;;;;;;;;;;5095708;28;19928;-71
2021/06/27 00:49:32;;;;;;;;;;;;;;;;;;5095275;28;19930;-71
2021/06/27 00:51:59;;;;;;;;;;;;;;;;;;5095236;28;20027;-71
2021/06/27 00:54:26;;;;;;;;;;;;;;;;;;5095629;28;20019;-69
2021/06/27 00:56:53;;;;;;;;;;;;;;;;;;5094984;28;20015;-69
2021/06/27 00:59:20;;;;;;;;;;;;;;;;;;5094990;28;20011;-71
2021/06/27 01:01:47;;;;;;;;;;;;;;;;;;5095191;28;19931;-70
2021/06/27 01:04:14;;;;;;;;;;;;;;;;;;5095310;28;19924;-70
2021/06/27 01:06:41;;;;;;;;;;;;;;;;;;5094422;28;19923;-70
2021/06/27 01:09:08;;;;;;;;;;;;;;;;;;5075078;28;19931;-69
2021/06/27 01:11:35;;;;;;;;;;;;;;;;;;5074921;28;19924;-70
2021/06/27 01:14:02;;;;;;;;;;;;;;;;;;5074878;28;19924;-71
2021/06/27 01:16:29;;;;;;;;;;;;;;;;;;5074605;28;20345;-72
2021/06/27 01:18:56;;;;;;;;;;;;;;;;;;5074457;28;19928;-71
2021/06/27 01:21:23;;;;;;;;;;;;;;;;;;5074206;28;19932;-71
2021/06/27 01:23:50;;;;;;;;;;;;;;;;;;5074702;28;20303;-70
2021/06/27 01:26:17;;;;;;;;;;;;;;;;;;5094461;28;19944;-71
2021/06/27 01:28:44;;;;;;;;;;;;;;;;;;5094733;28;19939;-71
2021/06/27 01:31:11;;;;;;;;;;;;;;;;;;5094354;28;19924;-74
2021/06/27 01:33:38;;;;;;;;;;;;;;;;;;5094729;28;19993;-70
2021/06/27 01:36:05;;;;;;;;;;;;;;;;;;5094910;28;19928;-71
2021/06/27 01:38:35;;;;;;;;;;;;;;;;;;5094656;28;19924;-71
2021/06/27 01:41:02;;;;;;;;;;;;;;;;;;5094593;28;19930;-70
2021/06/27 01:43:29;;;;;;;;;;;;;;;;;;5094571;28;20025;-70
2021/06/27 01:45:57;;;;;;;;;;;;;;;;;;5094291;28;20274;-71
2021/06/27 01:48:24;;;;;;;;;;;;;;;;;;5094164;28;19967;-69
2021/06/27 01:50:51;;;;;;;;;;;;;;;;;;5093976;28;19924;-70
2021/06/27 01:53:18;;;;;;;;;;;;;;;;;;5094243;28;20014;-70
2021/06/27 01:55:45;;;;;;;;;;;;;;;;;;5093081;28;19974;-71
2021/06/27 01:58:12;;;;;;;;;;;;;;;;;;5094035;28;19946;-69
2021/06/27 02:00:39;;;;;;;;;;;;;;;;;;5093729;28;19924;-70
2021/06/27 02:03:06;;;;;;;;;;;;;;;;;;5094024;28;19924;-70
2021/06/27 02:05:33;;;;;;;;;;;;;;;;;;5094011;28;19924;-70
2021/06/27 02:08:00;;;;;;;;;;;;;;;;;;5082426;28;20011;-70
2021/06/27 02:10:27;;;;;;;;;;;;;;;;;;5073218;28;19924;-70
2021/06/27 02:12:54;;;;;;;;;;;;;;;;;;5073632;28;19994;-71
2021/06/27 02:15:21;;;;;;;;;;;;;;;;;;5073342;28;19925;-71
2021/06/27 02:17:48;;;;;;;;;;;;;;;;;;5073476;28;19924;-71
2021/06/27 02:20:15;;;;;;;;;;;;;;;;;;5073874;28;20373;-70
2021/06/27 02:22:42;;;;;;;;;;;;;;;;;;5082050;28;19931;-71
2021/06/27 02:25:09;;;;;;;;;;;;;;;;;;5095214;28;19924;-69
2021/06/27 02:27:36;;;;;;;;;;;;;;;;;;5104807;28;19936;-71
2021/06/27 02:30:03;;;;;;;;;;;;;;;;;;5107045;28;19923;-70
2021/06/27 02:32:30;;;;;;;;;;;;;;;;;;5106645;28;20011;-70
2021/06/27 02:34:57;;;;;;;;;;;;;;;;;;5107027;28;19970;-72
2021/06/27 02:37:24;;;;;;;;;;;;;;;;;;5107347;28;19923;-71
2021/06/27 02:39:51;;;;;;;;;;;;;;;;;;5105347;28;19924;-72
2021/06/27 02:42:18;;;;;;;;;;;;;;;;;;5104891;28;19988;-70
2021/06/27 02:44:45;;;;;;;;;;;;;;;;;;5097689;28;20284;-70
2021/06/27 02:47:15;;;;;;;;;;;;;;;;;;5094356;28;19924;-70
2021/06/27 02:49:42;;;;;;;;;;;;;;;;;;5093671;28;20285;-71
2021/06/27 02:52:09;;;;;;;;;;;;;;;;;;5094126;28;19931;-70
2021/06/27 02:54:36;;;;;;;;;;;;;;;;;;5093584;28;19924;-70
2021/06/27 02:57:03;;;;;;;;;;;;;;;;;;5093167;28;19948;-70
2021/06/27 02:59:30;;;;;;;;;;;;;;;;;;5093138;28;19930;-69
2021/06/27 03:01:57;;;;;;;;;;;;;;;;;;5092866;28;19924;-70
2021/06/27 03:04:24;;;;;;;;;;;;;;;;;;5092919;28;20387;-71
2021/06/27 03:06:51;;;;;;;;;;;;;;;;;;5077592;28;19946;-71
2021/06/27 03:09:18;;;;;;;;;;;;;;;;;;5072633;28;19925;-71
2021/06/27 03:11:45;;;;;;;;;;;;;;;;;;5072583;28;20306;-70
2021/06/27 03:14:12;;;;;;;;;;;;;;;;;;5073030;28;20023;-71
2021/06/27 03:16:39;;;;;;;;;;;;;;;;;;5072262;28;19932;-70
2021/06/27 03:19:06;;;;;;;;;;;;;;;;;;5072237;28;19924;-69
2021/06/27 03:21:33;;;;;;;;;;;;;;;;;;5072025;28;19931;-70
2021/06/27 03:24:00;;;;;;;;;;;;;;;;;;5073219;28;19924;-71
2021/06/27 03:26:27;;;;;;;;;;;;;;;;;;5092646;28;19934;-69
2021/06/27 03:28:54;;;;;;;;;;;;;;;;;;5092439;28;20024;-70
2021/06/27 03:31:21;;;;;;;;;;;;;;;;;;5092067;28;19935;-69
2021/06/27 03:33:50;;;;;;;;;;;;;;;;;;5089258;22;19931;-63
2021/06/27 03:36:17;;;;;;;;;;;;;;;;;;5072257;28;19972;-63
2021/06/27 03:38:47;;;;;;;;;;;;;;;;;;5071814;28;19936;-64
2021/06/27 03:41:20;;;;;;;;;;;;;;;;;;5071867;28;19924;-64
2021/06/27 03:43:47;;;;;;;;;;;;;;;;;;5071916;28;19924;-63
2021/06/27 03:46:14;;;;;;;;;;;;;;;;;;5071783;28;19929;-63
2021/06/27 03:48:41;;;;;;;;;;;;;;;;;;5072081;28;19924;-64
2021/06/27 03:51:08;;;;;;;;;;;;;;;;;;5071896;28;20372;-63
2021/06/27 03:53:35;;;;;;;;;;;;;;;;;;5071977;28;20304;-63
2021/06/27 03:56:02;;;;;;;;;;;;;;;;;;5071649;28;20011;-64
2021/06/27 03:58:29;;;;;;;;;;;;;;;;;;5072001;28;20415;-63
2021/06/27 04:00:56;;;;;;;;;;;;;;;;;;5071761;28;19924;-64
2021/06/27 04:03:23;;;;;;;;;;;;;;;;;;5071862;28;19925;-63
2021/06/27 04:05:50;;;;;;;;;;;;;;;;;;5072051;28;20349;-64
2021/06/27 04:08:17;;;;;;;;;;;;;;;;;;5071975;28;19930;-64
2021/06/27 04:10:44;;;;;;;;;;;;;;;;;;5071544;28;19928;-64
2021/06/27 04:13:11;;;;;;;;;;;;;;;;;;5071456;28;19924;-63
2021/06/27 04:15:38;;;;;;;;;;;;;;;;;;5071546;28;20415;-63
2021/06/27 04:18:05;;;;;;;;;;;;;;;;;;5070756;28;19931;-64
2021/06/27 04:20:32;;;;;;;;;;;;;;;;;;5071404;28;19928;-64
2021/06/27 04:22:59;;;;;;;;;;;;;;;;;;5071308;28;19924;-64
2021/06/27 04:25:26;;;;;;;;;;;;;;;;;;5084169;28;19924;-63
2021/06/27 04:27:53;;;;;;;;;;;;;;;;;;5092007;28;19923;-64
2021/06/27 04:30:20;;;;;;;;;;;;;;;;;;5091439;28;19925;-63
2021/06/27 04:32:47;;;;;;;;;;;;;;;;;;5091407;28;20011;-64
2021/06/27 04:35:14;;;;;;;;;;;;;;;;;;5091737;28;19928;-63
2021/06/27 04:37:41;;;;;;;;;;;;;;;;;;5091748;28;19931;-63
2021/06/27 04:40:08;;;;;;;;;;;;;;;;;;5091109;28;20022;-63
2021/06/27 04:42:35;;;;;;;;;;;;;;;;;;5091649;28;19924;-63
2021/06/27 04:45:02;;;;;;;;;;;;;;;;;;5091636;28;20024;-63
2021/06/27 04:47:29;;;;;;;;;;;;;;;;;;5091448;28;19931;-63
2021/06/27 04:49:56;;;;;;;;;;;;;;;;;;5091342;28;19924;-63
2021/06/27 04:52:23;;;;;;;;;;;;;;;;;;5091450;28;19924;-64
2021/06/27 04:54:50;;;;;;;;;;;;;;;;;;5091421;28;19972;-64
2021/06/27 04:57:17;;;;;;;;;;;;;;;;;;5091373;28;19924;-63
2021/06/27 04:59:44;;;;;;;;;;;;;;;;;;5091272;28;20027;-63
2021/06/27 05:02:11;;;;;;;;;;;;;;;;;;5090990;28;19930;-63
2021/06/27 05:04:38;;;;;;;;;;;;;;;;;;5091583;28;19924;-63
2021/06/27 05:07:04;;;;;;;;;;;;;;;;;;5087354;28;20350;-63
2021/06/27 05:09:31;;;;;;;;;;;;;;;;;;5071339;28;19936;-63
2021/06/27 05:11:58;;;;;;;;;;;;;;;;;;5071128;28;19924;-63
2021/06/27 05:14:25;;;;;;;;;;;;;;;;;;5070959;28;20398;-63
2021/06/27 05:16:53;;;;;;;;;;;;;;;;;;5070985;28;20299;-63
2021/06/27 05:19:20;;;;;;;;;;;;;;;;;;5070640;28;20026;-64
2021/06/27 05:21:47;;;;;;;;;;;;;;;;;;5071089;28;20010;-64
2021/06/27 05:24:14;;;;;;;;;;;;;;;;;;5073591;28;20011;-64
2021/06/27 05:26:41;;;;;;;;;;;;;;;;;;5091335;28;20356;-64
2021/06/27 05:29:08;;;;;;;;;;;;;;;;;;5091641;28;19924;-63
2021/06/27 05:31:36;;;;;;;;;;;;;;;;;;5095073;28;20287;-63
2021/06/27 05:34:03;;;;;;;;;;;;;;;;;;5095678;28;19924;-63
2021/06/27 05:36:36;;;;;;;;;;;;;;;;;;5094782;28;20357;-64
2021/06/27 05:39:03;;;;;;;;;;;;;;;;;;5094746;28;20405;-64
2021/06/27 05:41:30;;;;;;;;;;;;;;;;;;5094214;28;19935;-64
2021/06/27 05:43:57;;;;;;;;;;;;;;;;;;5094557;28;19934;-64
2021/06/27 05:46:24;;;;;;;;;;;;;;;;;;5094698;28;20318;-63
2021/06/27 05:48:51;;;;;;;;;;;;;;;;;;5094558;28;19946;-64
2021/06/27 05:51:18;;;;;;;;;;;;;;;;;;5094371;28;19924;-65
2021/06/27 05:53:45;;;;;;;;;;;;;;;;;;5094421;28;20076;-64
2021/06/27 05:56:16;;;;;;;;;;;;;;;;;;5094199;28;20417;-64
2021/06/27 05:58:43;;;;;;;;;;;;;;;;;;5094190;28;20023;-64
2021/06/27 06:01:10;;;;;;;;;;;;;;;;;;5094280;28;19928;-64
2021/06/27 06:03:40;;;;;;;;;;;;;;;;;;5094571;28;19924;-64
2021/06/27 06:06:07;;;;;;;;;;;;;;;;;;5094017;28;19978;-64
2021/06/27 06:08:34;;;;;;;;;;;;;;;;;;5077715;28;19928;-64
2021/06/27 06:11:01;;;;;;;;;;;;;;;;;;5073473;28;19924;-65
2021/06/27 06:13:28;;;;;;;;;;;;;;;;;;5073724;28;19932;-64
2021/06/27 06:15:55;;;;;;;;;;;;;;;;;;5073866;28;20010;-65
2021/06/27 06:18:22;;;;;;;;;;;;;;;;;;5073886;28;19931;-65
2021/06/27 06:20:49;;;;;;;;;;;;;;;;;;5073219;28;19924;-65
2021/06/27 06:23:16;;;;;;;;;;;;;;;;;;5073409;28;19924;-65
2021/06/27 06:25:43;;;;;;;;;;;;;;;;;;5088691;28;19925;-65
2021/06/27 06:28:12;;;;;;;;;;;;;;;;;;5093740;28;20015;-65
2021/06/27 06:30:39;;;;;;;;;;;;;;;;;;5093913;28;19986;-65
2021/06/27 06:33:10;;;;;;;;;;;;;;;;;;5093630;28;19924;-65
2021/06/27 06:35:37;;;;;;;;;;;;;;;;;;5094032;28;19983;-64
2021/06/27 06:38:04;;;;;;;;;;;;;;;;;;5093742;28;19928;-65
2021/06/27 06:40:31;;;;;;;;;;;;;;;;;;5092644;28;19975;-65
2021/06/27 06:42:58;;;;;;;;;;;;;;;;;;5093383;28;19931;-64
2021/06/27 06:45:25;;;;;;;;;;;;;;;;;;5093472;28;19930;-64
2021/06/27 06:47:52;;;;;;;;;;;;;;;;;;5093300;28;19931;-64
2021/06/27 06:50:19;;;;;;;;;;;;;;;;;;5092899;28;19930;-65
2021/06/27 06:52:47;;;;;;;;;;;;;;;;;;5093582;28;19924;-63
2021/06/27 06:55:14;;;;;;;;;;;;;;;;;;5093151;28;19928;-64
2021/06/27 06:57:41;;;;;;;;;;;;;;;;;;5093333;28;19924;-65
2021/06/27 07:00:08;;;;;;;;;;;;;;;;;;5093077;28;19930;-64
2021/06/27 07:02:35;;;;;;;;;;;;;;;;;;5093076;28;19950;-64
2021/06/27 07:05:02;;;;;;;;;;;;;;;;;;5092977;28;20410;-64
2021/06/27 07:07:29;;;;;;;;;;;;;;;;;;5085777;28;20029;-64
2021/06/27 07:09:56;;;;;;;;;;;;;;;;;;5077414;28;20019;-64
2021/06/27 07:12:23;;;;;;;;;;;;;;;;;;5076179;28;20091;-63
2021/06/27 07:14:50;;;;;;;;;;;;;;;;;;5074817;28;19931;-64
2021/06/27 07:17:17;;;;;;;;;;;;;;;;;;5073559;28;20296;-64
2021/06/27 07:19:44;;;;;;;;;;;;;;;;;;5072170;28;19935;-64
2021/06/27 07:22:11;;;;;;;;;;;;;;;;;;5072576;28;19924;-64
2021/06/27 07:24:38;;;;;;;;;;;;;;;;;;5078586;28;20280;-66
2021/06/27 07:27:05;;;;;;;;;;;;;;;;;;5092406;28;19924;-64
2021/06/27 07:29:32;;;;;;;;;;;;;;;;;;5092535;28;20042;-65
2021/06/27 07:31:59;;;;;;;;;;;;;;;;;;5092335;28;20425;-64
2021/06/27 07:34:27;;;;;;;;;;;;;;;;;;5093011;28;20033;-64
2021/06/27 07:36:54;;;;;;;;;;;;;;;;;;5092639;28;19989;-64
2021/06/27 07:39:21;;;;;;;;;;;;;;;;;;5092299;28;19928;-64
2021/06/27 07:41:48;;;;;;;;;;;;;;;;;;5092599;28;20026;-64
2021/06/27 07:44:15;;;;;;;;;;;;;;;;;;5092639;28;19928;-63
2021/06/27 07:46:42;;;;;;;;;;;;;;;;;;5092407;28;19946;-63
2021/06/27 07:49:09;;;;;;;;;;;;;;;;;;5092545;28;20295;-64
2021/06/27 07:51:36;;;;;;;;;;;;;;;;;;5092628;28;20062;-64
2021/06/27 07:54:03;;;;;;;;;;;;;;;;;;5091711;28;19930;-63
2021/06/27 07:56:30;;;;;;;;;;;;;;;;;;5091921;28;19924;-64
2021/06/27 07:58:57;;;;;;;;;;;;;;;;;;5092265;28;20307;-64
2021/06/27 08:01:24;;;;;;;;;;;;;;;;;;5092081;28;19950;-64
2021/06/27 08:03:51;;;;;;;;;;;;;;;;;;5092790;28;19931;-65
2021/06/27 08:06:18;;;;;;;;;;;;;;;;;;5092351;28;20042;-64
2021/06/27 08:08:45;;;;;;;;;;;;;;;;;;5074230;28;19982;-63
2021/06/27 08:11:12;;;;;;;;;;;;;;;;;;5071747;28;19924;-63
2021/06/27 08:13:39;;;;;;;;;;;;;;;;;;5071888;28;20015;-64
2021/06/27 08:16:06;;;;;;;;;;;;;;;;;;5072070;28;19931;-64
2021/06/27 08:18:33;;;;;;;;;;;;;;;;;;5071627;28;19924;-64
2021/06/27 08:21:00;;;;;;;;;;;;;;;;;;5071615;28;19924;-63
2021/06/27 08:23:27;;;;;;;;;;;;;;;;;;5071932;28;19940;-64
2021/06/27 08:25:54;;;;;;;;;;;;;;;;;;5088781;28;20377;-66
2021/06/27 08:28:21;;;;;;;;;;;;;;;;;;5092539;28;20015;-64
2021/06/27 08:30:48;;;;;;;;;;;;;;;;;;5092888;28;19924;-64
2021/06/27 08:33:15;;;;;;;;;;;;;;;;;;5092967;28;20275;-65
2021/06/27 08:35:42;;;;;;;;;;;;;;;;;;5092682;28;19924;-64
2021/06/27 08:38:11;;;;;;;;;;;;;;;;;;5092792;28;20022;-64
2021/06/27 08:40:38;;;;;;;;;;;;;;;;;;5091951;28;20269;-64
2021/06/27 08:43:04;;;;;;;;;;;;;;;;;;5092348;28;19959;-64
2021/06/27 08:45:31;;;;;;;;;;;;;;;;;;5091647;28;20522;-64
2021/06/27 08:47:58;;;;;;;;;;;;;;;;;;5092097;28;19924;-63
2021/06/27 08:50:25;;;;;;;;;;;;;;;;;;5092917;28;19924;-65
2021/06/27 08:52:52;;;;;;;;;;;;;;;;;;5092390;28;19924;-64
2021/06/27 08:55:19;;;;;;;;;;;;;;;;;;5092003;28;19931;-65
2021/06/27 08:57:46;;;;;;;;;;;;;;;;;;5092596;28;20283;-65
2021/06/27 09:00:13;;;;;;;;;;;;;;;;;;5091539;28;19930;-64
2021/06/27 09:02:40;;;;;;;;;;;;;;;;;;5091274;28;20410;-65
2021/06/27 09:05:07;;;;;;;;;;;;;;;;;;5095016;28;19924;-64
2021/06/27 09:07:34;;;;;;;;;;;;;;;;;;5088510;28;19928;-64
2021/06/27 09:10:02;;;;;;;;;;;;;;;;;;5076358;28;19936;-65
2021/06/27 09:12:29;;;;;;;;;;;;;;;;;;5074968;28;20404;-64
2021/06/27 09:14:56;;;;;;;;;;;;;;;;;;5075187;28;20319;-63
2021/06/27 09:17:23;;;;;;;;;;;;;;;;;;5074913;28;19924;-63
2021/06/27 09:19:50;;;;;;;;;;;;;;;;;;5074384;28;19978;-64
2021/06/27 09:22:17;;;;;;;;;;;;;;;;;;5074802;28;19924;-65
2021/06/27 09:24:46;;;;;;;;;;;;;;;;;;5081286;28;19928;-65
2021/06/27 09:27:13;;;;;;;;;;;;;;;;;;5095435;28;20344;-65
2021/06/27 09:29:40;;;;;;;;;;;;;;;;;;5094877;28;19947;-65
2021/06/27 09:32:07;;;;;;;;;;;;;;;;;;5095114;28;20007;-65
2021/06/27 09:34:34;;;;;;;;;;;;;;;;;;5095042;28;19925;-66
2021/06/27 09:37:01;;;;;;;;;;;;;;;;;;5094604;28;19924;-66
2021/06/27 09:39:30;;;;;;;;;;;;;;;;;;5094855;28;19946;-64
2021/06/27 09:41:58;;;;;;;;;;;;;;;;;;5094944;28;19971;-66
2021/06/27 09:44:25;;;;;;;;;;;;;;;;;;5095119;28;20437;-65
2021/06/27 09:46:52;;;;;;;;;;;;;;;;;;5094517;28;20308;-64
2021/06/27 09:49:19;;;;;;;;;;;;;;;;;;5094751;28;19930;-64
2021/06/27 09:51:46;;;;;;;;;;;;;;;;;;5094896;28;20299;-65
2021/06/27 09:54:13;;;;;;;;;;;;;;;;;;5094573;28;19924;-66
2021/06/27 09:56:40;;;;;;;;;;;;;;;;;;5094278;28;19928;-65
2021/06/27 09:59:07;;;;;;;;;;;;;;;;;;5094107;28;19924;-64
2021/06/27 10:01:34;;;;;;;;;;;;;;;;;;5094188;28;19928;-65
2021/06/27 10:04:02;;;;;;;;;;;;;;;;;;5094170;28;19924;-65
2021/06/27 10:06:29;;;;;;;;;;;;;;;;;;5094435;28;20027;-65
2021/06/27 10:08:56;;;;;;;;;;;;;;;;;;5075392;28;19971;-65
2021/06/27 10:11:23;;;;;;;;;;;;;;;;;;5073391;28;20016;-64
2021/06/27 10:13:50;;;;;;;;;;;;;;;;;;5073970;28;19924;-64
2021/06/27 10:16:17;;;;;;;;;;;;;;;;;;5072532;28;19931;-65
2021/06/27 10:18:44;;;;;;;;;;;;;;;;;;5073682;28;19968;-64
2021/06/27 10:21:11;;;;;;;;;;;;;;;;;;5073266;28;19930;-64
2021/06/27 10:23:38;;;;;;;;;;;;;;;;;;5073779;28;20122;-65
2021/06/27 10:26:05;;;;;;;;;;;;;;;;;;5091901;28;19924;-65
2021/06/27 10:28:32;;;;;;;;;;;;;;;;;;5093820;28;19924;-65
2021/06/27 10:30:59;;;;;;;;;;;;;;;;;;5093201;28;20315;-65
2021/06/27 10:33:26;;;;;;;;;;;;;;;;;;5093131;28;20007;-65
2021/06/27 10:35:53;;;;;;;;;;;;;;;;;;5093749;28;19924;-64
2021/06/27 10:38:20;;;;;;;;;;;;;;;;;;5093250;28;20019;-65
2021/06/27 10:40:47;;;;;;;;;;;;;;;;;;5093159;28;20343;-65
2021/06/27 10:43:14;;;;;;;;;;;;;;;;;;5093069;28;19924;-65
2021/06/27 10:45:41;;;;;;;;;;;;;;;;;;5093282;28;19931;-64
2021/06/27 10:48:08;;;;;;;;;;;;;;;;;;5092989;28;20479;-64
2021/06/27 10:50:35;;;;;;;;;;;;;;;;;;5092825;28;19928;-65
2021/06/27 10:53:02;;;;;;;;;;;;;;;;;;5092864;28;19924;-65
2021/06/27 10:55:29;;;;;;;;;;;;;;;;;;5092949;28;20007;-65
2021/06/27 10:57:56;;;;;;;;;;;;;;;;;;5092946;28;19967;-65
2021/06/27 11:00:23;;;;;;;;;;;;;;;;;;5092221;28;19928;-65
2021/06/27 11:02:50;;;;;;;;;;;;;;;;;;5092504;28;19930;-66
2021/06/27 11:05:17;;;;;;;;;;;;;;;;;;5092272;28;19924;-66
2021/06/27 11:07:44;;;;;;;;;;;;;;;;;;5083201;28;19951;-63
2021/06/27 11:10:11;;;;;;;;;;;;;;;;;;5072204;28;19930;-65
2021/06/27 11:12:38;;;;;;;;;;;;;;;;;;5072002;28;19928;-65
2021/06/27 11:15:05;;;;;;;;;;;;;;;;;;5072187;28;19935;-65
2021/06/27 11:17:32;;;;;;;;;;;;;;;;;;5071971;28;19931;-64
2021/06/27 11:19:59;;;;;;;;;;;;;;;;;;5071951;28;20373;-65
2021/06/27 11:22:26;;;;;;;;;;;;;;;;;;5072130;28;19931;-65
2021/06/27 11:24:53;;;;;;;;;;;;;;;;;;5080418;28;19971;-65
2021/06/27 11:27:20;;;;;;;;;;;;;;;;;;5091906;28;20023;-64
2021/06/27 11:29:47;;;;;;;;;;;;;;;;;;5092261;28;19936;-65
2021/06/27 11:32:15;;;;;;;;;;;;;;;;;;5092081;28;19928;-64
2021/06/27 11:34:42;;;;;;;;;;;;;;;;;;5092156;28;19924;-65
2021/06/27 11:37:09;;;;;;;;;;;;;;;;;;5091889;28;19924;-64
2021/06/27 11:39:36;;;;;;;;;;;;;;;;;;5092037;28;19934;-65
2021/06/27 11:42:03;;;;;;;;;;;;;;;;;;5092054;28;20340;-65
2021/06/27 11:44:30;;;;;;;;;;;;;;;;;;5091913;28;19947;-65
2021/06/27 11:46:57;;;;;;;;;;;;;;;;;;5092143;28;19930;-65
2021/06/27 11:49:24;;;;;;;;;;;;;;;;;;5092134;28;20402;-65
2021/06/27 11:51:51;;;;;;;;;;;;;;;;;;5092635;28;19924;-65
2021/06/27 11:54:18;;;;;;;;;;;;;;;;;;5092741;28;19924;-65
2021/06/27 11:56:45;;;;;;;;;;;;;;;;;;5092084;28;19932;-65
2021/06/27 11:59:12;;;;;;;;;;;;;;;;;;5092085;28;20295;-65
2021/06/27 12:01:39;;;;;;;;;;;;;;;;;;5091816;28;20185;-65
2021/06/27 12:04:06;;;;;;;;;;;;;;;;;;5092033;28;19994;-65
2021/06/27 12:06:33;;;;;;;;;;;;;;;;;;5091645;28;19925;-65
2021/06/27 12:09:00;;;;;;;;;;;;;;;;;;5071952;28;19924;-65
2021/06/27 12:11:27;;;;;;;;;;;;;;;;;;5071251;28;20018;-64
2021/06/27 12:13:56;;;;;;;;;;;;;;;;;;5071672;28;19924;-66
2021/06/27 12:16:23;;;;;;;;;;;;;;;;;;5071637;28;19983;-66
2021/06/27 12:18:50;;;;;;;;;;;;;;;;;;5071635;28;19925;-65
2021/06/27 12:21:17;;;;;;;;;;;;;;;;;;5071280;28;19925;-65
2021/06/27 12:23:44;;;;;;;;;;;;;;;;;;5071188;28;19931;-65
2021/06/27 12:26:11;;;;;;;;;;;;;;;;;;5090226;28;19934;-65
2021/06/27 12:28:38;;;;;;;;;;;;;;;;;;5091307;28;19924;-65
2021/06/27 12:31:05;;;;;;;;;;;;;;;;;;5091523;28;19931;-65
2021/06/27 12:33:32;;;;;;;;;;;;;;;;;;5091411;28;20403;-65
2021/06/27 12:35:59;;;;;;;;;;;;;;;;;;5091558;28;19971;-65
2021/06/27 12:38:26;;;;;;;;;;;;;;;;;;5091447;28;19932;-65
2021/06/27 12:40:53;;;;;;;;;;;;;;;;;;5095786;28;20376;-65
2021/06/27 12:43:20;;;;;;;;;;;;;;;;;;5099130;28;20014;-65
2021/06/27 12:45:47;;;;;;;;;;;;;;;;;;5096333;28;19928;-64
2021/06/27 12:48:14;;;;;;;;;;;;;;;;;;5100753;28;20308;-64
2021/06/27 12:50:42;;;;;;;;;;;;;;;;;;5097566;28;20006;-64
2021/06/27 12:53:09;;;;;;;;;;;;;;;;;;5096274;28;19924;-65
2021/06/27 12:55:36;;;;;;;;;;;;;;;;;;5095558;28;19931;-65
2021/06/27 12:58:04;;;;;;;;;;;;;;;;;;5095410;28;20288;-65
2021/06/27 13:00:32;;;;;;;;;;;;;;;;;;5095277;28;19989;-65
2021/06/27 13:02:59;;;;;;;;;;;;;;;;;;5095024;28;19928;-65
2021/06/27 13:05:26;;;;;;;;;;;;;;;;;;5095281;28;19924;-65
2021/06/27 13:07:53;;;;;;;;;;;;;;;;;;5079493;28;20031;-64
2021/06/27 13:10:20;;;;;;;;;;;;;;;;;;5074833;28;19925;-65
2021/06/27 13:12:47;;;;;;;;;;;;;;;;;;5074592;28;19928;-65
2021/06/27 13:15:14;;;;;;;;;;;;;;;;;;5062215;28;19925;-65
2021/06/27 13:17:41;;;;;;;;;;;;;;;;;;5054444;28;20012;-65
2021/06/27 13:20:14;;;;;;;;;;;;;;;;;;5055258;28;19928;-65
2021/06/27 13:22:41;;;;;;;;;;;;;;;;;;5060864;28;20327;-65
2021/06/27 13:25:08;;;;;;;;;;;;;;;;;;5072742;28;19931;-65
2021/06/27 13:27:35;;;;;;;;;;;;;;;;;;5056622;28;19933;-64
2021/06/27 13:30:02;;;;;;;;;;;;;;;;;;5069036;28;19925;-64
2021/06/27 13:32:29;;;;;;;;;;;;;;;;;;5066426;28;20023;-64
2021/06/27 13:34:56;;;;;;;;;;;;;;;;;;5067023;28;19929;-65
2021/06/27 13:37:23;;;;;;;;;;;;;;;;;;5066873;28;21084;-65
2021/06/27 13:39:50;;;;;;;;;;;;;;;;;;5065155;28;19925;-65
2021/06/27 13:42:17;;;;;;;;;;;;;;;;;;5065295;28;19971;-65
2021/06/27 13:44:44;;;;;;;;;;;;;;;;;;5064098;28;19931;-65
2021/06/27 13:47:11;;;;;;;;;;;;;;;;;;5065890;28;19932;-64
2021/06/27 13:49:39;;;;;;;;;;;;;;;;;;5066839;28;19924;-64
2021/06/27 13:52:06;;;;;;;;;;;;;;;;;;5064351;28;20011;-64
2021/06/27 13:54:33;;;;;;;;;;;;;;;;;;5064786;28;19924;-64
2021/06/27 13:57:00;;;;;;;;;;;;;;;;;;5067250;28;20320;-63
2021/06/27 13:59:27;;;;;;;;;;;;;;;;;;5067641;28;19963;-63
2021/06/27 14:01:54;;;;;;;;;;;;;;;;;;5063229;28;19935;-64
2021/06/27 14:04:21;;;;;;;;;;;;;;;;;;5064993;28;20254;-64
2021/06/27 14:06:48;;;;;;;;;;;;;;;;;;5065110;28;19931;-64
2021/06/27 14:09:15;;;;;;;;;;;;;;;;;;5063030;28;19925;-64
2021/06/27 14:11:42;;;;;;;;;;;;;;;;;;5066999;28;20444;-64
2021/06/27 14:14:09;;;;;;;;;;;;;;;;;;5066180;28;20301;-64
2021/06/27 14:16:37;;;;;;;;;;;;;;;;;;5066882;28;19932;-64
2021/06/27 14:19:04;;;;;;;;;;;;;;;;;;5063170;28;19943;-64
2021/06/27 14:21:33;;;;;;;;;;;;;;;;;;5072046;28;20105;-64
2021/06/27 14:24:00;;;;;;;;;;;;;;;;;;5065759;28;19946;-63
2021/06/27 14:26:27;;;;;;;;;;;;;;;;;;5067743;28;19972;-64
2021/06/27 14:28:54;;;;;;;;;;;;;;;;;;5067076;28;19924;-64
2021/06/27 14:31:25;;;;;;;;;;;;;;;;;;5063267;28;19925;-63
2021/06/27 14:33:55;;;;;;;;;;;;;;;;;;5052574;28;19924;-64
2021/06/27 14:36:23;;;;;;;;;;;;;;;;;;5066346;28;19924;-64
2021/06/27 14:38:50;;;;;;;;;;;;;;;;;;5072976;28;19979;-64
2021/06/27 14:41:17;;;;;;;;;;;;;;;;;;5061448;28;19929;-64
2021/06/27 14:43:45;;;;;;;;;;;;;;;;;;5056768;28;19925;-64
2021/06/27 14:46:12;;;;;;;;;;;;;;;;;;5062277;28;20039;-64
2021/06/27 14:48:39;;;;;;;;;;;;;;;;;;5052926;28;19931;-64
2021/06/27 14:51:07;;;;;;;;;;;;;;;;;;5052668;28;19925;-65
2021/06/27 14:53:34;;;;;;;;;;;;;;;;;;5052313;28;19932;-64
2021/06/27 14:56:01;;;;;;;;;;;;;;;;;;5053751;28;19936;-64
2021/06/27 14:58:28;;;;;;;;;;;;;;;;;;5068788;28;19931;-64
2021/06/27 15:00:55;;;;;;;;;;;;;;;;;;5053771;28;19925;-64
2021/06/27 15:03:22;;;;;;;;;;;;;;;;;;5058795;28;19925;-64
2021/06/27 15:05:49;;;;;;;;;;;;;;;;;;5069833;28;20292;-64
2021/06/27 15:08:16;;;;;;;;;;;;;;;;;;5059853;28;19924;-65
2021/06/27 15:10:43;;;;;;;;;;;;;;;;;;5069545;28;20352;-65
2021/06/27 15:13:10;;;;;;;;;;;;;;;;;;5072395;28;20293;-65
2021/06/27 15:15:37;;;;;;;;;;;;;;;;;;5063839;28;20369;-65
2021/06/27 15:18:04;;;;;;;;;;;;;;;;;;5052650;28;19925;-64
2021/06/27 15:20:31;;;;;;;;;;;;;;;;;;5052024;28;19925;-64
2021/06/27 15:22:58;;;;;;;;;;;;;;;;;;5051879;28;19925;-65
2021/06/27 15:25:25;;;;;;;;;;;;;;;;;;5076946;28;20392;-65
2021/06/27 15:27:52;;;;;;;;;;;;;;;;;;5083789;28;19928;-65
2021/06/27 15:30:20;;;;;;;;;;;;;;;;;;5069752;28;19976;-65
2021/06/27 15:32:47;;;;;;;;;;;;;;;;;;5068519;28;19959;-65
2021/06/27 15:35:15;;;;;;;;;;;;;;;;;;5062605;28;19947;-65
2021/06/27 15:37:42;;;;;;;;;;;;;;;;;;5071781;28;20307;-65
2021/06/27 15:40:09;;;;;;;;;;;;;;;;;;5071963;28;20166;-65
2021/06/27 15:42:36;;;;;;;;;;;;;;;;;;5071554;28;20416;-65
2021/06/27 15:45:03;;;;;;;;;;;;;;;;;;5069557;28;19925;-65
2021/06/27 15:47:30;;;;;;;;;;;;;;;;;;5065570;28;19924;-65
2021/06/27 15:49:57;;;;;;;;;;;;;;;;;;5070767;28;20319;-65
2021/06/27 15:52:24;;;;;;;;;;;;;;;;;;5072436;28;19931;-65
2021/06/27 15:54:51;;;;;;;;;;;;;;;;;;5071939;28;19947;-64
2021/06/27 15:57:18;;;;;;;;;;;;;;;;;;5072249;28;19928;-64
2021/06/27 15:59:45;;;;;;;;;;;;;;;;;;5072485;28;19932;-64
2021/06/27 16:02:12;;;;;;;;;;;;;;;;;;5069154;28;19928;-66
2021/06/27 16:04:39;;;;;;;;;;;;;;;;;;5071632;28;19925;-65
2021/06/27 16:07:06;;;;;;;;;;;;;;;;;;5067622;28;19987;-65
2021/06/27 16:09:33;;;;;;;;;;;;;;;;;;5051482;28;19924;-65
2021/06/27 16:12:01;;;;;;;;;;;;;;;;;;5053114;28;20036;-65
2021/06/27 16:14:28;;;;;;;;;;;;;;;;;;5070651;28;19936;-65
2021/06/27 16:16:55;;;;;;;;;;;;;;;;;;5072008;28;20337;-64
2021/06/27 16:19:23;;;;;;;;;;;;;;;;;;5071643;28;20026;-66
2021/06/27 16:21:51;;;;;;;;;;;;;;;;;;5055125;28;19971;-65
2021/06/27 16:24:18;;;;;;;;;;;;;;;;;;5053412;28;19928;-65
2021/06/27 16:26:45;;;;;;;;;;;;;;;;;;5068163;28;19993;-67
2021/06/27 16:29:12;;;;;;;;;;;;;;;;;;5051992;28;20075;-63
2021/06/27 16:31:39;;;;;;;;;;;;;;;;;;5052112;28;20011;-65
2021/06/27 16:34:06;;;;;;;;;;;;;;;;;;5069074;28;19988;-66
2021/06/27 16:36:34;;;;;;;;;;;;;;;;;;5052794;28;19968;-65
2021/06/27 16:39:01;;;;;;;;;;;;;;;;;;5064160;28;20067;-66
2021/06/27 16:41:28;;;;;;;;;;;;;;;;;;5060282;28;19935;-66
2021/06/27 16:43:55;;;;;;;;;;;;;;;;;;5057698;28;20372;-65